• Join FlightAware (Why Join?)
  • Login
  • US Flag 
09:44AM EDT


 

Airport Tracker/Info


-or-


 

Live Flight TrackerFlight Track Log ✈ KAP5 ✈ 29-Jun-2013 ✈ KBOS - KMVY

Flight Track Log - Related Links

Times and Time Zones

All times are in EDT time to prevent confusion due to time zone crossing. See the KAP5 flight status page for this flight to view local times or setup timezone preferences in your user account.

Time Position Orientation Groundspeed Altitude Reporting Facility
EDT Latitude Longitude Course Direction KTS MPH feet Rate Location/Type
03:10PM 42.3500 -71.0167 180° South 110 127 400  Level KA90
03:10PM 42.3333 -71.0167 180° South 107 123 1,000 780 Climbing KA90
03:11PM 42.3000 -71.0333 200° South 115 132 1,800 780 Climbing KA90
03:12PM 42.2833 -71.0333 180° South 115 132 2,500 660 Climbing KA90
03:13PM 42.2500 -71.0167 160° South 124 143 3,100 540 Climbing KA90
03:14PM 42.2333 -70.9667 114° Southeast 138 159 3,600 420 Climbing KA90
03:15PM 42.2000 -70.9500 160° South 130 150 4,000 240 Climbing KA90
03:16PM 42.1667 -70.9167 143° Southeast 141 162 4,100 360 Climbing KA90
03:17PM 42.1333 -70.9000 160° South 124 143 4,800 660 Climbing KA90
03:19PM 42.1076 -70.8954 160° South  Level FlightAware Approximate
03:26PM 41.9600 -70.8216 160° South  Level FlightAware Approximate
03:27PM 41.9382 -70.8167 180° South  Level FlightAware Approximate
03:28PM 41.9157 -70.8162 161° South  Level FlightAware Approximate
03:29PM 41.8944 -70.8065 161° South  Level FlightAware Approximate
03:30PM 41.8731 -70.7968 161° South  Level FlightAware Approximate
03:31PM 41.8518 -70.7871 161° South  Level FlightAware Approximate
03:32PM 41.8305 -70.7775 161° South  Level FlightAware Approximate
03:33PM 41.8092 -70.7678 161° South  Level FlightAware Approximate
03:34PM 41.7879 -70.7581 161° South  Level FlightAware Approximate
03:35PM 41.7666 -70.7484 161° South  Level FlightAware Approximate
03:36PM 41.7453 -70.7388 161° South  Level FlightAware Approximate
03:37PM 41.7239 -70.7298 164° South  Level FlightAware Approximate
03:38PM 41.7022 -70.7216 164° South  Level FlightAware Approximate
03:39PM 41.6805 -70.7135 164° South  Level FlightAware Approximate
03:40PM 41.6589 -70.7054 164° South  Level FlightAware Approximate
03:41PM 41.6372 -70.6973 164° South  Level FlightAware Approximate
03:42PM 41.6156 -70.6892 164° South  Level FlightAware Approximate
03:43PM 41.5939 -70.6811 164° South  Level FlightAware Approximate
03:44PM 41.5723 -70.6729 164° South  Level FlightAware Approximate
03:45PM 41.5506 -70.6648 164° South  Level FlightAware Approximate
03:46PM 41.5290 -70.6567 164° South  Level FlightAware Approximate
03:47PM 41.5073 -70.6486 164° South  Level FlightAware Approximate